createdAt,value
2022-10-25T00:00:29.399Z,23.46
2022-10-25T00:02:56.794Z,22.88
2022-10-25T00:05:27.430Z,22.71
2022-10-25T00:07:56.839Z,23.12
2022-10-25T00:10:39.023Z,23.22
2022-10-25T00:13:06.839Z,23.33
2022-10-25T00:15:35.691Z,23.36
2022-10-25T00:18:04.003Z,23.36
2022-10-25T00:20:31.434Z,23.37
2022-10-25T00:22:58.801Z,23.36
2022-10-25T00:25:26.164Z,23.35
2022-10-25T00:27:53.808Z,23.35
2022-10-25T00:30:23.126Z,23.38
2022-10-25T00:32:54.633Z,23.36
2022-10-25T00:35:25.404Z,23.34
2022-10-25T00:37:54.163Z,23.37
2022-10-25T00:40:24.671Z,23.39
2022-10-25T00:42:52.276Z,23.41
2022-10-25T00:45:22.774Z,23.41
2022-10-25T00:47:56.720Z,23.40
2022-10-25T00:50:45.787Z,23.42
2022-10-25T00:53:18.920Z,23.40
2022-10-25T00:55:53.988Z,23.41
2022-10-25T00:58:25.468Z,23.39
2022-10-25T01:00:52.876Z,23.39
2022-10-25T01:03:24.153Z,23.38
2022-10-25T01:05:53.248Z,23.37
2022-10-25T01:08:22.170Z,23.38
2022-10-25T01:10:50.412Z,23.42
2022-10-25T01:13:18.371Z,23.39
2022-10-25T01:15:57.123Z,23.35
2022-10-25T01:18:39.251Z,23.35
2022-10-25T01:21:43.657Z,23.31
2022-10-25T01:24:45.490Z,23.31
2022-10-25T01:27:36.918Z,23.35
2022-10-25T01:30:11.821Z,23.34
2022-10-25T01:32:45.119Z,23.34
2022-10-25T01:35:25.434Z,23.35
2022-10-25T01:38:04.539Z,23.36
2022-10-25T01:40:42.380Z,23.40
2022-10-25T01:43:15.814Z,22.98
2022-10-25T01:45:55.638Z,23.31
2022-10-25T01:48:32.096Z,23.28
2022-10-25T01:51:06.155Z,23.30
2022-10-25T01:53:33.975Z,23.35
2022-10-25T01:56:05.101Z,23.36
2022-10-25T01:58:42.920Z,23.38
2022-10-25T02:01:20.499Z,23.32
2022-10-25T02:03:58.171Z,23.37
2022-10-25T02:06:32.806Z,23.36
2022-10-25T02:09:14.786Z,23.34
2022-10-25T02:11:44.816Z,23.36
2022-10-25T02:14:22.252Z,23.35
2022-10-25T02:16:54.823Z,23.36
2022-10-25T02:19:28.367Z,23.38
2022-10-25T02:21:57.853Z,23.40
2022-10-25T02:24:27.497Z,23.40
2022-10-25T02:26:57.067Z,23.37
2022-10-25T02:29:29.679Z,23.41
2022-10-25T02:31:58.959Z,23.40
2022-10-25T02:34:28.090Z,23.39
2022-10-25T02:36:56.383Z,23.41
2022-10-25T02:39:27.810Z,23.37
2022-10-25T02:41:57.936Z,23.37
2022-10-25T02:44:25.363Z,23.37
2022-10-25T02:46:53.160Z,23.38
2022-10-25T02:49:20.522Z,23.41
2022-10-25T02:51:49.393Z,23.38
2022-10-25T02:54:16.819Z,23.39
2022-10-25T02:56:44.229Z,23.40
2022-10-25T02:59:12.280Z,23.33
2022-10-25T03:01:39.762Z,23.36
2022-10-25T03:04:08.170Z,23.36
2022-10-25T03:06:40.004Z,23.37
2022-10-25T03:09:10.098Z,23.35
2022-10-25T03:11:39.558Z,23.38
2022-10-25T03:14:08.441Z,23.37
2022-10-25T03:16:39.311Z,23.43
2022-10-25T03:19:07.471Z,23.40
2022-10-25T03:21:38.671Z,23.44
2022-10-25T03:24:10.077Z,23.49
2022-10-25T03:26:37.419Z,23.50
2022-10-25T03:29:06.089Z,23.50
2022-10-25T03:31:35.323Z,23.45
2022-10-25T03:34:06.855Z,23.56
2022-10-25T03:36:35.910Z,23.59
2022-10-25T03:39:04.748Z,23.60
2022-10-25T03:41:35.554Z,23.62
2022-10-25T03:44:04.977Z,23.61
2022-10-25T03:46:35.257Z,23.53
2022-10-25T03:49:04.198Z,23.56
2022-10-25T03:51:32.720Z,23.54
2022-10-25T03:54:04.723Z,23.57
2022-10-25T03:56:36.100Z,23.58
2022-10-25T03:59:03.579Z,23.53
2022-10-25T04:01:34.114Z,23.60
2022-10-25T04:04:05.256Z,23.56
2022-10-25T04:06:32.926Z,23.58
2022-10-25T04:09:03.411Z,23.60
2022-10-25T04:11:32.387Z,23.64
2022-10-25T04:14:03.847Z,23.63
2022-10-25T04:16:31.932Z,23.63
2022-10-25T04:19:02.859Z,23.65
2022-10-25T04:21:33.199Z,23.66
2022-10-25T04:24:03.508Z,23.66
2022-10-25T04:26:32.012Z,23.66
2022-10-25T04:29:05.247Z,23.65
2022-10-25T04:31:33.914Z,23.65
2022-10-25T04:34:01.318Z,23.60
2022-10-25T04:36:31.857Z,23.56
2022-10-25T04:38:59.633Z,23.68
2022-10-25T04:41:30.837Z,23.64
2022-10-25T04:43:59.427Z,23.63
2022-10-25T04:46:31.944Z,23.63
2022-10-25T04:48:59.378Z,23.60
2022-10-25T04:51:29.863Z,23.57
2022-10-25T04:53:57.888Z,23.51
2022-10-25T04:56:28.548Z,23.45
2022-10-25T04:58:55.975Z,23.51
2022-10-25T05:01:23.392Z,23.56
2022-10-25T05:03:52.394Z,23.56
2022-10-25T05:06:22.414Z,23.63
2022-10-25T05:08:51.297Z,23.65
2022-10-25T05:11:19.881Z,23.32
2022-10-25T05:13:47.626Z,23.48
2022-10-25T05:16:18.360Z,23.51
2022-10-25T05:18:45.763Z,23.53
2022-10-25T05:21:18.305Z,23.61
2022-10-25T05:23:46.533Z,23.59
2022-10-25T05:26:17.043Z,23.60
2022-10-25T05:28:45.907Z,23.60
2022-10-25T05:31:15.458Z,23.70
2022-10-25T05:33:46.283Z,23.64
2022-10-25T05:36:18.597Z,23.61
2022-10-25T05:38:47.233Z,23.57
2022-10-25T05:41:16.933Z,23.60
2022-10-25T05:43:44.344Z,23.61
2022-10-25T05:46:14.156Z,23.56
2022-10-25T05:48:47.276Z,23.61
2022-10-25T05:51:33.343Z,23.51
2022-10-25T05:54:03.121Z,23.44
2022-10-25T05:56:32.410Z,23.53
2022-10-25T05:59:03.674Z,23.51
2022-10-25T06:01:31.415Z,23.46
2022-10-25T06:03:58.884Z,23.50
2022-10-25T06:06:28.253Z,23.51
2022-10-25T06:08:57.443Z,23.53
2022-10-25T06:11:25.764Z,23.46
2022-10-25T06:13:53.312Z,23.54
2022-10-25T06:16:21.685Z,23.55
2022-10-25T06:18:49.215Z,23.61
2022-10-25T06:21:18.997Z,23.63
2022-10-25T06:23:48.624Z,23.63
2022-10-25T06:26:18.008Z,23.66
2022-10-25T06:28:45.452Z,23.58
2022-10-25T06:31:15.017Z,23.63
2022-10-25T06:33:43.200Z,23.62
2022-10-25T06:36:12.925Z,23.67
2022-10-25T06:38:41.383Z,23.64
2022-10-25T06:41:12.767Z,23.70
2022-10-25T06:43:40.343Z,23.70
2022-10-25T06:46:09.538Z,23.61
2022-10-25T06:48:38.029Z,23.70
2022-10-25T06:51:07.474Z,23.67
2022-10-25T06:53:38.450Z,23.66
2022-10-25T06:56:09.351Z,23.86
2022-10-25T06:58:42.641Z,23.85
2022-10-25T07:01:12.120Z,23.91
2022-10-25T07:03:40.080Z,23.89
2022-10-25T07:06:09.419Z,23.87
2022-10-25T07:08:38.308Z,23.81
2022-10-25T07:11:06.350Z,23.74
2022-10-25T07:13:34.645Z,23.69
2022-10-25T07:16:05.025Z,23.69
2022-10-25T07:18:36.533Z,23.71
2022-10-25T07:21:06.311Z,23.74
2022-10-25T07:23:36.876Z,23.67
2022-10-25T07:26:04.286Z,23.66
2022-10-25T07:28:35.177Z,23.65
2022-10-25T07:31:04.165Z,23.66
2022-10-25T07:33:34.430Z,23.62
2022-10-25T07:36:10.773Z,23.63
2022-10-25T07:38:39.594Z,23.66
2022-10-25T07:41:07.671Z,23.55
2022-10-25T07:43:35.397Z,23.72
2022-10-25T07:46:04.936Z,23.69
2022-10-25T07:48:32.799Z,23.77
2022-10-25T07:51:04.432Z,23.66
2022-10-25T07:53:31.780Z,23.48
2022-10-25T07:56:00.976Z,23.16
2022-10-25T07:58:29.872Z,23.26
2022-10-25T08:01:01.762Z,23.12
2022-10-25T08:03:32.276Z,23.00
2022-10-25T08:06:00.907Z,22.82
2022-10-25T08:08:30.383Z,22.66
2022-10-25T08:10:58.755Z,22.71
2022-10-25T08:13:29.941Z,22.57
2022-10-25T08:15:58.493Z,22.65
2022-10-25T08:18:29.288Z,22.65
2022-10-25T08:21:02.999Z,22.58
2022-10-25T08:23:31.951Z,22.67
2022-10-25T08:25:59.670Z,22.68
2022-10-25T08:28:27.865Z,22.67
2022-10-25T08:30:55.562Z,22.65
2022-10-25T08:33:23.485Z,22.44
2022-10-25T08:35:50.875Z,22.57
2022-10-25T08:38:19.760Z,22.58
2022-10-25T08:40:57.622Z,22.42
2022-10-25T08:43:44.832Z,22.54
2022-10-25T08:46:17.433Z,22.47
2022-10-25T08:48:50.100Z,22.52
2022-10-25T08:51:25.224Z,22.49
2022-10-25T08:53:58.317Z,22.30
2022-10-25T08:56:27.507Z,22.40
2022-10-25T08:59:00.193Z,22.36
2022-10-25T09:01:35.971Z,22.41
2022-10-25T09:04:03.688Z,22.37
2022-10-25T09:06:39.179Z,22.39
2022-10-25T09:09:19.289Z,22.40
2022-10-25T09:12:04.895Z,22.28
2022-10-25T09:14:46.903Z,22.30
2022-10-25T09:17:21.125Z,22.35
2022-10-25T09:20:03.663Z,22.37
2022-10-25T09:22:34.968Z,22.40
2022-10-25T09:25:11.035Z,22.31
2022-10-25T09:27:43.915Z,22.23
2022-10-25T09:30:12.562Z,22.08
2022-10-25T09:32:43.544Z,22.02
2022-10-25T09:35:16.719Z,22.13
2022-10-25T09:37:48.794Z,22.16
2022-10-25T09:40:21.442Z,22.12
2022-10-25T09:42:52.852Z,22.19
2022-10-25T09:45:24.919Z,22.13
2022-10-25T09:48:04.477Z,22.18
2022-10-25T09:50:35.819Z,22.17
2022-10-25T09:53:11.586Z,22.03
2022-10-25T09:55:46.004Z,21.99
2022-10-25T09:58:21.362Z,21.98
2022-10-25T10:00:50.474Z,22.06
2022-10-25T10:03:18.476Z,22.12
2022-10-25T10:05:50.478Z,22.01
2022-10-25T10:08:18.342Z,21.98
2022-10-25T10:10:49.657Z,21.61
2022-10-25T10:13:21.191Z,21.54
2022-10-25T10:15:54.319Z,21.42
2022-10-25T10:18:27.633Z,21.70
2022-10-25T10:21:12.853Z,21.86
2022-10-25T10:23:56.632Z,21.73
2022-10-25T10:26:31.870Z,21.65
2022-10-25T10:29:17.464Z,21.71
2022-10-25T10:31:48.935Z,21.89
2022-10-25T10:34:27.787Z,21.73
2022-10-25T10:37:03.838Z,21.66
2022-10-25T10:39:31.421Z,21.71
2022-10-25T10:42:01.984Z,21.79
2022-10-25T10:44:30.813Z,21.67
2022-10-25T10:46:58.712Z,21.62
2022-10-25T10:49:39.408Z,21.87
2022-10-25T10:52:26.882Z,21.80
2022-10-25T10:54:55.205Z,21.67
2022-10-25T10:57:31.478Z,21.67
2022-10-25T11:00:00.238Z,21.62
2022-10-25T11:02:37.451Z,21.60
2022-10-25T11:05:18.639Z,21.61
2022-10-25T11:07:52.581Z,21.64
2022-10-25T11:10:30.871Z,21.59
2022-10-25T11:13:14.234Z,21.73
2022-10-25T11:16:08.201Z,21.67
2022-10-25T11:18:54.450Z,21.53
2022-10-25T11:21:33.187Z,21.54
2022-10-25T11:24:09.721Z,21.72
2022-10-25T11:26:49.513Z,21.60
2022-10-25T11:29:38.057Z,21.56
2022-10-25T11:32:25.558Z,21.57
2022-10-25T11:35:02.860Z,21.44
2022-10-25T11:37:33.943Z,21.56
2022-10-25T11:40:12.623Z,21.67
2022-10-25T11:42:57.642Z,22.00
2022-10-25T11:45:38.214Z,22.05
2022-10-25T11:48:31.142Z,22.08
2022-10-25T11:51:09.278Z,22.18
2022-10-25T11:54:09.067Z,22.17
2022-10-25T11:56:44.922Z,22.00
2022-10-25T11:59:19.576Z,22.10
2022-10-25T12:02:03.434Z,22.31
2022-10-25T12:04:46.366Z,22.33
2022-10-25T12:07:18.641Z,22.39
2022-10-25T12:09:56.925Z,22.30
2022-10-25T12:12:30.834Z,22.34
2022-10-25T12:15:01.533Z,22.36
2022-10-25T12:17:32.435Z,22.40
2022-10-25T12:20:03.428Z,22.25
2022-10-25T12:22:38.088Z,22.43
2022-10-25T12:25:15.598Z,22.47
2022-10-25T12:27:47.281Z,22.48
2022-10-25T12:30:17.779Z,22.57
2022-10-25T12:32:54.185Z,22.53
2022-10-25T12:35:25.704Z,22.61
2022-10-25T12:37:58.083Z,22.67
2022-10-25T12:40:28.257Z,22.68
2022-10-25T12:43:01.691Z,22.67
2022-10-25T12:46:00.511Z,22.69
2022-10-25T12:48:58.653Z,22.72
2022-10-25T12:51:40.803Z,22.70
2022-10-25T12:54:38.328Z,22.75
2022-10-25T12:57:14.435Z,22.74
2022-10-25T12:59:57.120Z,22.81
2022-10-25T13:02:59.931Z,22.79
2022-10-25T13:06:00.075Z,22.80
2022-10-25T13:08:31.422Z,22.81
2022-10-25T13:11:03.850Z,22.78
2022-10-25T13:13:33.822Z,22.85
2022-10-25T13:16:03.672Z,22.80
2022-10-25T13:18:43.361Z,22.89
2022-10-25T13:21:12.402Z,22.80
2022-10-25T13:24:01.150Z,22.83
2022-10-25T13:26:32.139Z,22.87
2022-10-25T13:29:02.516Z,22.86
2022-10-25T13:31:46.763Z,22.92
2022-10-25T13:34:31.603Z,22.91
2022-10-25T13:37:02.574Z,22.90
2022-10-25T13:39:33.492Z,22.91
2022-10-25T13:42:08.605Z,22.88
2022-10-25T13:44:39.462Z,22.86
2022-10-25T13:47:32.667Z,22.85
2022-10-25T13:50:02.786Z,22.83
2022-10-25T13:52:44.405Z,22.98
2022-10-25T13:55:15.758Z,22.93
2022-10-25T13:57:52.321Z,22.93
2022-10-25T14:00:33.729Z,22.93
2022-10-25T14:03:25.907Z,22.93
2022-10-25T14:06:21.610Z,22.97
2022-10-25T14:09:16.381Z,22.95
2022-10-25T14:11:49.878Z,22.94
2022-10-25T14:14:28.582Z,22.93
2022-10-25T14:17:06.826Z,22.97
2022-10-25T14:19:38.338Z,22.91
2022-10-25T14:22:14.759Z,22.90
2022-10-25T14:24:45.390Z,22.86
2022-10-25T14:27:34.497Z,22.89
2022-10-25T14:30:13.108Z,22.91
2022-10-25T14:32:49.889Z,22.94
2022-10-25T14:35:18.354Z,22.98
2022-10-25T14:37:45.836Z,22.90
2022-10-25T14:40:21.532Z,22.93
2022-10-25T14:42:49.238Z,22.90
2022-10-25T14:45:23.441Z,22.85
2022-10-25T14:47:51.390Z,22.84
2022-10-25T14:50:23.666Z,22.83
2022-10-25T14:52:52.353Z,22.85
2022-10-25T14:55:29.517Z,22.78
2022-10-25T14:57:58.580Z,22.81
2022-10-25T15:00:26.435Z,22.80
2022-10-25T15:02:57.795Z,22.69
2022-10-25T15:05:26.282Z,22.76
2022-10-25T15:07:56.262Z,22.81
2022-10-25T15:10:44.014Z,22.80
2022-10-25T15:13:23.553Z,22.81
2022-10-25T15:15:52.233Z,22.90
2022-10-25T15:18:27.990Z,22.88
2022-10-25T15:21:08.413Z,22.92
2022-10-25T15:23:36.551Z,22.91
2022-10-25T15:26:23.048Z,22.94
2022-10-25T15:28:52.342Z,22.94
2022-10-25T15:31:24.523Z,22.98
2022-10-25T15:33:57.324Z,23.02
2022-10-25T15:36:28.890Z,22.98
2022-10-25T15:39:08.221Z,23.00
2022-10-25T15:41:40.018Z,23.03
2022-10-25T15:44:07.584Z,23.02
2022-10-25T15:46:35.549Z,22.93
2022-10-25T15:49:05.988Z,22.87
2022-10-25T15:51:36.258Z,22.87
2022-10-25T15:54:04.214Z,22.81
2022-10-25T15:56:32.201Z,22.79
2022-10-25T15:59:01.343Z,22.78
2022-10-25T16:01:29.602Z,22.80
2022-10-25T16:03:58.631Z,22.76
2022-10-25T16:06:26.941Z,22.73
2022-10-25T16:08:54.749Z,22.72
2022-10-25T16:11:22.660Z,22.73
2022-10-25T16:13:53.345Z,22.70
2022-10-25T16:16:43.310Z,22.72
2022-10-25T16:19:15.228Z,22.72
2022-10-25T16:21:43.400Z,22.71
2022-10-25T16:24:11.740Z,22.70
2022-10-25T16:26:41.493Z,22.70
2022-10-25T16:29:15.176Z,22.71
2022-10-25T16:31:44.838Z,22.69
2022-10-25T16:34:12.543Z,22.66
2022-10-25T16:36:39.844Z,22.53
2022-10-25T16:39:08.275Z,22.61
2022-10-25T16:41:38.518Z,22.62
2022-10-25T16:44:06.640Z,22.61
2022-10-25T16:46:34.133Z,22.62
2022-10-25T16:49:03.090Z,22.62
2022-10-25T16:51:30.630Z,22.59
2022-10-25T16:53:58.134Z,22.62
2022-10-25T16:56:25.661Z,22.61
2022-10-25T16:58:53.173Z,22.61
2022-10-25T17:01:22.721Z,22.63
2022-10-25T17:03:50.933Z,22.63
2022-10-25T17:06:41.336Z,22.63
2022-10-25T17:09:08.983Z,22.65
2022-10-25T17:11:36.519Z,22.65
2022-10-25T17:14:04.165Z,22.63
2022-10-25T17:16:31.592Z,22.62
2022-10-25T17:18:59.045Z,22.62
2022-10-25T17:21:27.816Z,22.59
2022-10-25T17:23:55.297Z,22.59
2022-10-25T17:26:22.803Z,22.57
2022-10-25T17:28:50.166Z,22.58
2022-10-25T17:31:17.794Z,22.57
2022-10-25T17:33:45.967Z,22.58
2022-10-25T17:36:16.829Z,22.60
2022-10-25T17:38:48.704Z,22.56
2022-10-25T17:41:16.118Z,22.56
2022-10-25T17:43:43.685Z,22.58
2022-10-25T17:46:17.153Z,22.52
2022-10-25T17:48:44.867Z,22.53
2022-10-25T17:51:15.991Z,22.51
2022-10-25T17:53:43.329Z,22.52
2022-10-25T17:56:16.982Z,22.53
2022-10-25T17:58:45.583Z,22.55
2022-10-25T18:01:15.150Z,22.53
2022-10-25T18:03:42.564Z,22.53
2022-10-25T18:06:14.222Z,22.52
2022-10-25T18:08:41.828Z,22.52
2022-10-25T18:11:10.849Z,22.49
2022-10-25T18:13:41.841Z,22.49
2022-10-25T18:16:11.063Z,22.48
2022-10-25T18:18:40.089Z,22.49
2022-10-25T18:21:13.110Z,22.48
2022-10-25T18:23:41.733Z,22.45
2022-10-25T18:26:13.240Z,22.41
2022-10-25T18:28:42.158Z,22.41
2022-10-25T18:31:11.277Z,22.42
2022-10-25T18:33:40.472Z,22.42
2022-10-25T18:36:10.650Z,22.38
2022-10-25T18:38:41.077Z,22.40
2022-10-25T18:41:10.062Z,22.39
2022-10-25T18:43:38.540Z,22.39
2022-10-25T18:46:10.324Z,22.40
2022-10-25T18:48:37.677Z,22.40
2022-10-25T18:51:07.204Z,22.42
2022-10-25T18:53:37.034Z,22.41
2022-10-25T18:56:08.238Z,22.42
2022-10-25T18:58:39.372Z,22.36
2022-10-25T19:01:12.076Z,22.37
2022-10-25T19:03:39.986Z,22.39
2022-10-25T19:06:08.550Z,22.40
2022-10-25T19:08:36.975Z,22.40
2022-10-25T19:11:05.417Z,22.43
2022-10-25T19:13:33.257Z,22.43
2022-10-25T19:16:01.240Z,22.42
2022-10-25T19:18:31.440Z,22.41
2022-10-25T19:21:01.746Z,22.41
2022-10-25T19:23:29.350Z,22.40
2022-10-25T19:25:57.122Z,22.39
2022-10-25T19:28:24.989Z,22.37
2022-10-25T19:30:53.969Z,22.36
2022-10-25T19:33:24.561Z,22.37
2022-10-25T19:35:53.606Z,22.37
2022-10-25T19:38:22.323Z,22.37
2022-10-25T19:40:50.913Z,22.36
2022-10-25T19:43:20.219Z,22.35
2022-10-25T19:45:47.904Z,22.36
2022-10-25T19:48:18.183Z,22.31
2022-10-25T19:50:50.143Z,22.30
2022-10-25T19:53:21.615Z,22.31
2022-10-25T19:55:58.190Z,22.31
2022-10-25T19:58:25.572Z,22.30
2022-10-25T20:01:01.606Z,22.34
2022-10-25T20:03:29.057Z,22.32
2022-10-25T20:06:00.727Z,22.32
2022-10-25T20:08:32.270Z,22.33
2022-10-25T20:10:59.698Z,22.29
2022-10-25T20:13:27.230Z,22.30
2022-10-25T20:15:54.890Z,22.28
2022-10-25T20:18:22.953Z,22.28
2022-10-25T20:20:53.156Z,22.26
2022-10-25T20:23:21.287Z,22.22
2022-10-25T20:25:50.085Z,22.24
2022-10-25T20:28:17.778Z,22.23
2022-10-25T20:30:48.105Z,22.23
2022-10-25T20:33:17.769Z,22.23
2022-10-25T20:35:47.073Z,22.21
2022-10-25T20:38:17.868Z,22.22
2022-10-25T20:40:49.561Z,22.15
2022-10-25T20:43:16.903Z,22.19
2022-10-25T20:45:47.733Z,22.22
2022-10-25T20:48:15.818Z,22.22
2022-10-25T20:50:46.418Z,22.22
2022-10-25T20:53:15.896Z,21.92
2022-10-25T20:55:45.106Z,21.46
2022-10-25T20:58:14.645Z,21.96
2022-10-25T21:00:44.954Z,21.97
2022-10-25T21:03:14.606Z,22.02
2022-10-25T21:05:44.529Z,22.00
2022-10-25T21:08:15.029Z,22.01
2022-10-25T21:10:52.273Z,22.03
2022-10-25T21:13:21.085Z,22.02
2022-10-25T21:15:49.152Z,22.03
2022-10-25T21:18:16.905Z,21.99
2022-10-25T21:20:44.384Z,22.00
2022-10-25T21:23:14.518Z,21.83
2022-10-25T21:25:42.496Z,21.92
2022-10-25T21:28:14.606Z,21.92
2022-10-25T21:30:43.338Z,21.91
2022-10-25T21:33:11.346Z,21.90
2022-10-25T21:35:42.070Z,21.92
2022-10-25T21:38:11.335Z,21.90
2022-10-25T21:40:41.406Z,21.93
2022-10-25T21:43:10.831Z,21.93
2022-10-25T21:45:42.468Z,21.98
2022-10-25T21:48:09.997Z,21.97
2022-10-25T21:50:40.041Z,21.97
2022-10-25T21:53:09.366Z,21.95
2022-10-25T21:55:40.192Z,21.96
2022-10-25T21:58:09.478Z,21.97
2022-10-25T22:00:43.313Z,21.95
2022-10-25T22:03:10.621Z,21.93
2022-10-25T22:05:43.017Z,21.96
2022-10-25T22:08:10.373Z,21.91
2022-10-25T22:10:37.938Z,21.97
2022-10-25T22:13:06.679Z,21.91
2022-10-25T22:15:37.493Z,21.91
2022-10-25T22:18:08.759Z,21.91
2022-10-25T22:20:36.790Z,21.90
2022-10-25T22:23:06.945Z,21.92
2022-10-25T22:25:37.548Z,21.90
2022-10-25T22:28:07.377Z,21.93
2022-10-25T22:30:34.697Z,21.95
2022-10-25T22:33:02.388Z,21.93
2022-10-25T22:35:32.281Z,21.93
2022-10-25T22:37:59.618Z,21.94
2022-10-25T22:40:26.996Z,21.94
2022-10-25T22:42:55.318Z,21.93
2022-10-25T22:45:24.505Z,21.92
2022-10-25T22:47:54.392Z,21.88
2022-10-25T22:50:24.690Z,21.83
2022-10-25T22:52:56.497Z,21.86
2022-10-25T22:55:23.902Z,21.88
2022-10-25T22:57:53.489Z,21.85
2022-10-25T23:00:24.472Z,21.87
2022-10-25T23:02:53.934Z,21.84
2022-10-25T23:05:24.306Z,21.85
2022-10-25T23:07:54.223Z,21.91
2022-10-25T23:10:24.515Z,21.89
2022-10-25T23:12:52.172Z,21.85
2022-10-25T23:15:23.117Z,21.89
2022-10-25T23:17:51.183Z,21.83
2022-10-25T23:20:22.140Z,21.81
2022-10-25T23:22:53.958Z,21.75
2022-10-25T23:25:21.350Z,21.69
2022-10-25T23:27:51.403Z,21.60
2022-10-25T23:30:20.201Z,21.56
2022-10-25T23:32:49.931Z,21.56
2022-10-25T23:35:19.984Z,21.54
2022-10-25T23:37:50.330Z,21.55
2022-10-25T23:40:22.089Z,21.56
2022-10-25T23:42:49.442Z,21.51
2022-10-25T23:45:19.844Z,21.57
2022-10-25T23:47:48.557Z,21.56
2022-10-25T23:50:18.058Z,21.58
2022-10-25T23:52:49.805Z,21.58
2022-10-25T23:55:19.656Z,21.51
2022-10-25T23:57:47.991Z,21.56
